Etusivu
METAR-TAF:

METAR-TAF

Lentoasemat :

Olive Branch Airport

Olive Branch, Mississippi, Yhdysvallat

Leveyspiiri: 34-58-44N, Pituuspiiri: 089-47-13W, korkeus merenpinnasta: 122 m

Tämänhetkinen sää

Tämä raportti tehtiin 44 minuuttia sitten, kello 16.50 UTC
Tuuli 6 kn etelästä/lounaasta
Lämpötila 8°C
Kosteus 34%
Ilmanpaine 1033 hPa
Näkyvyys: 16.1 km
Hajanaisia pilviä 25000 ft:n korkeudessa

METAR: KOLV 221650Z 21006KT 10SM SCT250 08/M07 A3049

Aika: 11:34 (17:34 UTC)


TAF: puuttuu

Säähavainnot ja -ennusteet yli 4000 lentoasemalta (METAR- ja TAF-raportit).

Käytössä olevat sääasemat on merkitty karttaan keltaisilla ja punaisilla pisteillä.

Aseta hiiri pisteen päälle nähdäksesi sääaseman nimen.

Klikkaa sitten nähdäksesi säähavainnot ja -ennusteet.

Kartan vaihtaminen: klikkaa mustalla rastilla varustettuja vihreitä pisteitä, niin voit zoomata sisään; viivalla varustettua vihreää pistettä, niin voit zoomata ulos tai vihreitä nuolia, niin pääset viereisille kartoille.


METAR-TAF: